createdAt,value
2018-12-06T00:00:26.713Z,0.47
2018-12-06T00:02:55.364Z,0.23
2018-12-06T00:05:24.116Z,0.80
2018-12-06T00:08:04.336Z,0.80
2018-12-06T00:10:34.848Z,3.77
2018-12-06T00:13:03.567Z,3.90
2018-12-06T00:15:32.203Z,2.77
2018-12-06T00:18:01.322Z,1.10
2018-12-06T00:20:30.833Z,0.63
2018-12-06T00:22:59.533Z,1.30
2018-12-06T00:25:29.028Z,4.77
2018-12-06T00:27:58.044Z,1.43
2018-12-06T00:30:32.309Z,3.57
2018-12-06T00:33:00.921Z,2.37
2018-12-06T00:35:29.735Z,1.85
2018-12-06T00:37:59.260Z,4.30
2018-12-06T00:40:28.064Z,7.33
2018-12-06T00:42:56.619Z,1.13
2018-12-06T00:45:25.368Z,2.37
2018-12-06T00:47:54.252Z,2.27
2018-12-06T00:50:22.836Z,2.30
2018-12-06T00:52:51.825Z,2.13
2018-12-06T00:55:20.296Z,0.57
2018-12-06T00:57:49.426Z,0.63
2018-12-06T01:00:17.867Z,2.43
2018-12-06T01:02:47.193Z,0.43
2018-12-06T01:05:15.856Z,1.20
2018-12-06T01:07:44.706Z,1.10
2018-12-06T01:10:13.772Z,2.53
2018-12-06T01:12:42.555Z,1.83
2018-12-06T01:15:11.160Z,1.23
2018-12-06T01:17:39.892Z,0.95
2018-12-06T01:20:08.761Z,7.63
2018-12-06T01:22:37.323Z,1.23
2018-12-06T01:25:06.749Z,0.87
2018-12-06T01:27:35.356Z,0.93
2018-12-06T01:30:04.812Z,1.67
2018-12-06T01:32:33.385Z,1.13
2018-12-06T01:35:02.005Z,3.23
2018-12-06T01:37:30.719Z,7.87
2018-12-06T01:39:59.269Z,1.63
2018-12-06T01:42:28.589Z,1.10
2018-12-06T01:44:57.404Z,2.30
2018-12-06T01:47:25.905Z,0.83
2018-12-06T01:49:54.422Z,1.03
2018-12-06T01:52:23.088Z,3.23
2018-12-06T01:54:51.683Z,2.90
2018-12-06T01:57:20.393Z,2.37
2018-12-06T01:59:49.154Z,1.03
2018-12-06T02:02:50.856Z,1.57
2018-12-06T02:05:19.651Z,3.20
2018-12-06T02:07:49.170Z,0.40
2018-12-06T02:10:17.728Z,1.20
2018-12-06T02:12:46.219Z,3.20
2018-12-06T02:15:15.373Z,0.50
2018-12-06T02:17:44.055Z,1.63
2018-12-06T02:20:12.784Z,1.43
2018-12-06T02:22:42.538Z,1.37
2018-12-06T02:25:11.137Z,2.73
2018-12-06T02:27:40.444Z,2.05
2018-12-06T02:30:09.206Z,1.13
2018-12-06T02:32:38.020Z,2.43
2018-12-06T02:35:06.584Z,1.98
2018-12-06T02:37:34.990Z,2.40
2018-12-06T02:40:04.571Z,1.37
2018-12-06T02:42:33.395Z,2.83
2018-12-06T02:45:02.169Z,3.43
2018-12-06T02:47:30.737Z,1.97
2018-12-06T02:50:00.092Z,1.40
2018-12-06T02:52:28.788Z,3.77
2018-12-06T02:54:57.374Z,1.77
2018-12-06T02:57:26.306Z,3.07
2018-12-06T02:59:55.852Z,2.27
2018-12-06T03:02:24.668Z,2.00
2018-12-06T03:04:53.167Z,9.83
2018-12-06T03:07:21.668Z,1.50
2018-12-06T03:09:50.272Z,3.13
2018-12-06T03:12:18.783Z,2.97
2018-12-06T03:14:47.284Z,0.97
2018-12-06T03:17:17.953Z,1.60
2018-12-06T03:19:47.733Z,2.33
2018-12-06T03:22:16.707Z,6.80
2018-12-06T03:24:45.268Z,3.23
2018-12-06T03:27:14.021Z,2.03
2018-12-06T03:29:42.794Z,2.97
2018-12-06T03:32:11.352Z,5.17
2018-12-06T03:34:40.035Z,2.50
2018-12-06T03:37:08.801Z,3.17
2018-12-06T03:39:37.387Z,2.73
2018-12-06T03:42:05.836Z,3.73
2018-12-06T03:44:36.186Z,2.57
2018-12-06T03:47:05.039Z,0.80
2018-12-06T03:49:33.892Z,3.80
2018-12-06T03:52:02.653Z,4.90
2018-12-06T03:54:31.397Z,2.30
2018-12-06T03:57:00.164Z,3.33
2018-12-06T03:59:29.540Z,5.45
2018-12-06T04:01:58.309Z,2.43
2018-12-06T04:04:27.138Z,2.83
2018-12-06T04:06:55.901Z,8.67
2018-12-06T04:09:24.596Z,1.00
2018-12-06T04:11:53.293Z,4.97
2018-12-06T04:14:21.989Z,1.30
2018-12-06T04:16:50.839Z,2.80
2018-12-06T04:19:19.708Z,5.60
2018-12-06T04:21:48.493Z,2.03
2018-12-06T04:24:17.296Z,1.93
2018-12-06T04:26:46.061Z,2.20
2018-12-06T04:29:14.674Z,5.20
2018-12-06T04:31:43.276Z,6.00
2018-12-06T04:34:13.904Z,3.30
2018-12-06T04:36:42.465Z,3.70
2018-12-06T04:39:11.063Z,3.67
2018-12-06T04:41:39.881Z,1.13
2018-12-06T04:44:08.440Z,5.37
2018-12-06T04:46:38.132Z,2.60
2018-12-06T04:49:07.025Z,7.17
2018-12-06T04:51:36.051Z,10.90
2018-12-06T04:54:04.756Z,13.87
2018-12-06T04:56:33.589Z,8.33
2018-12-06T04:59:02.350Z,8.80
2018-12-06T05:01:30.904Z,9.53
2018-12-06T05:03:59.881Z,11.12
2018-12-06T05:06:28.640Z,5.10
2018-12-06T05:08:57.146Z,5.57
2018-12-06T05:11:25.760Z,24.17
2018-12-06T05:13:54.482Z,29.47
2018-12-06T05:16:23.081Z,38.87
2018-12-06T05:18:51.581Z,13.77
2018-12-06T05:21:20.337Z,15.53
2018-12-06T05:23:49.096Z,14.97
2018-12-06T05:26:17.719Z,9.80
2018-12-06T05:28:46.136Z,7.13
2018-12-06T05:31:15.781Z,10.73
2018-12-06T05:33:44.565Z,6.83
2018-12-06T05:36:13.281Z,13.23
2018-12-06T05:38:42.117Z,37.53
2018-12-06T05:41:10.885Z,12.07
2018-12-06T05:43:39.604Z,81.77
2018-12-06T05:46:08.375Z,30.70
2018-12-06T05:48:36.980Z,30.23
2018-12-06T05:51:05.644Z,8.87
2018-12-06T05:53:34.247Z,6.13
2018-12-06T05:56:03.065Z,4.20
2018-12-06T05:58:31.833Z,5.70
2018-12-06T06:01:00.683Z,8.15
2018-12-06T06:03:29.451Z,4.43
2018-12-06T06:05:58.129Z,4.80
2018-12-06T06:08:27.083Z,8.20
2018-12-06T06:10:56.484Z,3.35
2018-12-06T06:13:25.184Z,2.37
2018-12-06T06:15:53.740Z,3.57
2018-12-06T06:18:22.345Z,6.53
2018-12-06T06:20:50.876Z,5.57
2018-12-06T06:23:19.596Z,9.03
2018-12-06T06:25:48.425Z,7.10
2018-12-06T06:28:17.213Z,6.90
2018-12-06T06:30:45.956Z,7.80
2018-12-06T06:33:14.555Z,5.03
2018-12-06T06:35:43.278Z,4.33
2018-12-06T06:38:11.977Z,4.92
2018-12-06T06:40:40.738Z,5.93
2018-12-06T06:43:09.496Z,7.20
2018-12-06T06:45:38.340Z,7.37
2018-12-06T06:48:06.864Z,4.67
2018-12-06T06:50:35.504Z,6.77
2018-12-06T06:53:04.336Z,4.17
2018-12-06T06:55:33.023Z,3.50
2018-12-06T06:58:01.623Z,7.63
2018-12-06T07:00:30.188Z,5.93
2018-12-06T07:02:58.797Z,7.13
2018-12-06T07:05:28.584Z,5.40
2018-12-06T07:07:57.347Z,1.97
2018-12-06T07:10:26.176Z,2.47
2018-12-06T07:12:54.934Z,6.80
2018-12-06T07:15:23.423Z,4.53
2018-12-06T07:17:52.085Z,5.93
2018-12-06T07:20:20.803Z,2.87
2018-12-06T07:22:49.280Z,5.27
2018-12-06T07:25:17.763Z,5.10
2018-12-06T07:27:46.429Z,8.83
2018-12-06T07:30:15.256Z,2.00
2018-12-06T07:32:44.089Z,4.03
2018-12-06T07:35:12.908Z,4.57
2018-12-06T07:37:41.500Z,13.20
2018-12-06T07:40:10.156Z,15.53
2018-12-06T07:42:39.075Z,11.83
2018-12-06T07:45:08.018Z,7.17
2018-12-06T07:47:36.803Z,4.73
2018-12-06T07:50:06.237Z,12.73
2018-12-06T07:52:35.408Z,11.97
2018-12-06T07:55:04.511Z,6.40
2018-12-06T07:57:33.277Z,18.67
2018-12-06T08:00:02.082Z,11.60
2018-12-06T08:02:31.069Z,6.17
2018-12-06T08:04:59.903Z,6.97
2018-12-06T08:07:29.834Z,36.63
2018-12-06T08:09:59.063Z,47.97
2018-12-06T08:12:27.696Z,10.73
2018-12-06T08:14:56.464Z,7.23
2018-12-06T08:17:25.195Z,6.20
2018-12-06T08:19:53.607Z,5.63
2018-12-06T08:22:22.228Z,8.33
2018-12-06T08:24:51.088Z,7.80
2018-12-06T08:27:19.700Z,13.80
2018-12-06T08:29:48.304Z,6.57
2018-12-06T08:32:16.893Z,10.53
2018-12-06T08:34:45.573Z,3.20
2018-12-06T08:37:14.076Z,6.57
2018-12-06T08:39:42.571Z,7.50
2018-12-06T08:42:11.377Z,12.60
2018-12-06T08:44:40.199Z,15.07
2018-12-06T08:47:08.926Z,14.30
2018-12-06T08:49:37.751Z,16.40
2018-12-06T08:52:06.572Z,29.20
2018-12-06T08:54:35.190Z,9.43
2018-12-06T08:57:03.986Z,18.90
2018-12-06T08:59:32.836Z,10.17
2018-12-06T09:02:01.600Z,20.33
2018-12-06T09:04:30.383Z,9.53
2018-12-06T09:06:59.244Z,12.30
2018-12-06T09:09:27.955Z,13.97
2018-12-06T09:11:56.745Z,6.63
2018-12-06T09:14:25.556Z,11.93
2018-12-06T09:16:55.265Z,9.23
2018-12-06T09:19:24.085Z,7.67
2018-12-06T09:21:52.885Z,5.53
2018-12-06T09:24:21.463Z,11.57
2018-12-06T09:26:50.145Z,7.30
2018-12-06T09:29:18.948Z,9.63
2018-12-06T09:31:47.519Z,15.33
2018-12-06T09:34:16.271Z,8.47
2018-12-06T09:36:45.108Z,8.40
2018-12-06T09:39:13.697Z,7.17
2018-12-06T09:41:42.241Z,6.20
2018-12-06T09:44:11.010Z,11.60
2018-12-06T09:46:39.859Z,9.23
2018-12-06T09:49:08.691Z,8.47
2018-12-06T09:51:37.480Z,6.10
2018-12-06T09:54:06.300Z,6.70
2018-12-06T09:56:35.101Z,10.30
2018-12-06T09:59:03.660Z,13.37
2018-12-06T10:01:32.413Z,13.53
2018-12-06T10:04:01.208Z,13.67
2018-12-06T10:06:30.027Z,18.40
2018-12-06T10:08:59.033Z,19.50
2018-12-06T10:11:27.838Z,18.13
2018-12-06T10:13:56.556Z,13.30
2018-12-06T10:16:26.300Z,12.43
2018-12-06T10:18:55.383Z,8.53
2018-12-06T10:21:23.936Z,10.67
2018-12-06T10:23:52.675Z,9.27
2018-12-06T10:26:21.513Z,9.07
2018-12-06T10:28:50.313Z,10.03
2018-12-06T10:31:19.077Z,9.10
2018-12-06T10:33:47.865Z,11.43
2018-12-06T10:36:16.700Z,7.83
2018-12-06T10:38:45.427Z,10.53
2018-12-06T10:41:14.313Z,10.67
2018-12-06T10:43:43.076Z,9.57
2018-12-06T10:46:11.856Z,8.27
2018-12-06T10:48:40.712Z,9.63
2018-12-06T10:51:21.042Z,16.07
2018-12-06T10:53:49.744Z,9.73
2018-12-06T10:56:18.550Z,11.40
2018-12-06T10:58:47.060Z,13.53
2018-12-06T11:01:18.367Z,12.83
2018-12-06T11:03:52.640Z,17.03
2018-12-06T11:06:21.224Z,9.10
2018-12-06T11:08:49.843Z,10.13
2018-12-06T11:11:18.573Z,7.37
2018-12-06T11:13:47.320Z,10.77
2018-12-06T11:16:15.916Z,7.60
2018-12-06T11:18:44.371Z,10.43
2018-12-06T11:21:13.133Z,10.00
2018-12-06T11:23:41.816Z,12.43
2018-12-06T11:26:10.520Z,14.93
2018-12-06T11:28:39.160Z,10.97
2018-12-06T11:31:07.907Z,14.40
2018-12-06T11:33:36.657Z,9.30
2018-12-06T11:36:05.162Z,9.23
2018-12-06T11:38:33.805Z,13.73
2018-12-06T11:41:02.609Z,15.72
2018-12-06T11:43:31.377Z,11.87
2018-12-06T11:46:00.051Z,16.07
2018-12-06T11:48:28.684Z,16.43
2018-12-06T11:50:57.279Z,10.47
2018-12-06T11:53:25.947Z,10.80
2018-12-06T11:55:55.529Z,10.27
2018-12-06T11:58:25.012Z,11.20
2018-12-06T12:00:53.687Z,10.70
2018-12-06T12:06:05.475Z,11.40
2018-12-06T12:08:34.249Z,11.07
2018-12-06T12:11:02.852Z,14.30
2018-12-06T12:13:31.606Z,9.93
2018-12-06T12:16:01.792Z,12.75
2018-12-06T12:18:31.525Z,10.50
2018-12-06T12:21:00.064Z,10.40
2018-12-06T12:23:28.476Z,9.63
2018-12-06T12:25:56.888Z,10.13
2018-12-06T12:28:25.507Z,9.43
2018-12-06T12:30:55.768Z,8.67
2018-12-06T12:33:24.977Z,7.23
2018-12-06T12:35:53.660Z,7.33
2018-12-06T12:38:22.352Z,9.17
2018-12-06T12:40:51.071Z,11.83
2018-12-06T12:43:20.880Z,11.13
2018-12-06T12:45:49.380Z,9.60
2018-12-06T12:48:18.049Z,10.87
2018-12-06T12:50:46.920Z,10.30
2018-12-06T12:53:16.664Z,10.93
2018-12-06T12:55:45.588Z,8.20
2018-12-06T12:58:14.102Z,11.43
2018-12-06T13:00:42.581Z,13.40
2018-12-06T13:03:11.340Z,10.60
2018-12-06T13:05:40.664Z,13.85
2018-12-06T13:08:09.357Z,7.07
2018-12-06T13:10:38.232Z,11.47
2018-12-06T13:13:07.073Z,10.20
2018-12-06T13:15:36.965Z,10.43
2018-12-06T13:18:05.515Z,10.87
2018-12-06T13:20:34.273Z,8.73
2018-12-06T13:23:04.233Z,11.03
2018-12-06T13:25:32.796Z,9.53
2018-12-06T13:28:01.218Z,8.90
2018-12-06T13:30:29.702Z,9.03
2018-12-06T13:32:58.533Z,10.70
2018-12-06T13:35:27.235Z,7.97
2018-12-06T13:37:56.990Z,7.30
2018-12-06T13:40:25.772Z,14.60
2018-12-06T13:42:54.604Z,8.80
2018-12-06T13:45:24.032Z,9.87
2018-12-06T13:47:52.837Z,10.17
2018-12-06T13:50:21.590Z,6.73
2018-12-06T13:52:50.183Z,9.33
2018-12-06T13:55:18.644Z,10.20
2018-12-06T13:57:47.097Z,11.10
2018-12-06T14:00:15.873Z,11.93
2018-12-06T14:02:44.729Z,9.60
2018-12-06T14:05:13.561Z,11.67
2018-12-06T14:07:42.111Z,9.70
2018-12-06T14:10:10.713Z,8.37
2018-12-06T14:12:39.556Z,11.10
2018-12-06T14:15:08.384Z,13.07
2018-12-06T14:17:36.916Z,9.30
2018-12-06T14:20:07.220Z,12.97
2018-12-06T14:22:37.037Z,9.50
2018-12-06T14:25:05.893Z,10.97
2018-12-06T14:27:34.637Z,13.27
2018-12-06T14:30:03.576Z,9.73
2018-12-06T14:32:32.309Z,13.03
2018-12-06T14:35:01.157Z,11.13
2018-12-06T14:37:29.803Z,12.15
2018-12-06T14:39:58.713Z,11.53
2018-12-06T14:42:27.601Z,12.47
2018-12-06T14:44:56.284Z,13.43
2018-12-06T14:47:25.049Z,17.83
2018-12-06T14:49:53.636Z,20.23
2018-12-06T14:52:23.049Z,40.50
2018-12-06T14:54:51.523Z,36.23
2018-12-06T14:57:20.165Z,36.30
2018-12-06T14:59:48.960Z,23.00
2018-12-06T15:02:17.728Z,16.37
2018-12-06T15:04:46.561Z,19.17
2018-12-06T15:07:15.276Z,13.18
2018-12-06T15:09:43.828Z,12.10
2018-12-06T15:12:12.581Z,13.60
2018-12-06T15:14:41.268Z,15.87
2018-12-06T15:17:09.843Z,12.73
2018-12-06T15:19:38.520Z,13.73
2018-12-06T15:22:07.293Z,16.30
2018-12-06T15:24:36.057Z,12.60
2018-12-06T15:27:04.728Z,13.13
2018-12-06T15:29:33.341Z,18.00
2018-12-06T15:32:02.126Z,19.17
2018-12-06T15:34:30.824Z,18.70
2018-12-06T15:36:59.616Z,16.23
2018-12-06T15:39:28.393Z,16.77
2018-12-06T15:41:57.193Z,13.73
2018-12-06T15:44:26.020Z,16.07
2018-12-06T15:46:55.012Z,20.67
2018-12-06T15:49:23.780Z,14.60
2018-12-06T15:51:52.545Z,10.97
2018-12-06T15:54:21.077Z,13.90
2018-12-06T15:56:49.745Z,12.50
2018-12-06T15:59:18.544Z,13.63
2018-12-06T16:01:47.305Z,14.68
2018-12-06T16:04:17.137Z,11.53
2018-12-06T16:06:45.923Z,13.80
2018-12-06T16:09:14.799Z,10.33
2018-12-06T16:11:43.522Z,11.23
2018-12-06T16:14:12.358Z,12.40
2018-12-06T16:16:41.109Z,13.53
2018-12-06T16:19:10.056Z,10.77
2018-12-06T16:21:38.614Z,10.87
2018-12-06T16:24:07.288Z,8.27
2018-12-06T16:26:36.076Z,11.00
2018-12-06T16:29:04.900Z,11.77
2018-12-06T16:31:33.652Z,6.73
2018-12-06T16:34:02.796Z,10.33
2018-12-06T16:36:31.353Z,10.27
2018-12-06T16:39:00.030Z,16.17
2018-12-06T16:41:28.780Z,7.47
2018-12-06T16:43:57.343Z,7.27
2018-12-06T16:46:26.068Z,4.93
2018-12-06T16:48:55.472Z,7.67
2018-12-06T16:51:24.226Z,7.63
2018-12-06T16:53:52.796Z,8.70
2018-12-06T16:56:21.512Z,9.63
2018-12-06T16:58:50.080Z,7.83
2018-12-06T17:01:18.737Z,7.87
2018-12-06T17:03:48.343Z,7.70
2018-12-06T17:06:16.975Z,9.63
2018-12-06T17:08:45.758Z,9.20
2018-12-06T17:11:14.789Z,7.50
2018-12-06T17:13:43.555Z,8.77
2018-12-06T17:16:12.240Z,9.43
2018-12-06T17:18:41.004Z,6.73
2018-12-06T17:21:09.557Z,5.87
2018-12-06T17:23:38.288Z,8.23
2018-12-06T17:26:07.100Z,8.67
2018-12-06T17:28:35.660Z,6.73
2018-12-06T17:31:04.408Z,10.97
2018-12-06T17:33:33.292Z,9.13
2018-12-06T17:36:02.073Z,12.00
2018-12-06T17:38:31.196Z,11.13
2018-12-06T17:40:59.893Z,13.37
2018-12-06T17:43:28.664Z,8.07
2018-12-06T17:45:57.441Z,7.60
2018-12-06T17:48:27.168Z,7.83
2018-12-06T17:50:56.621Z,8.27
2018-12-06T17:53:25.452Z,8.83
2018-12-06T17:55:54.571Z,10.20
2018-12-06T17:58:23.349Z,11.70
2018-12-06T18:00:52.163Z,9.17
2018-12-06T18:03:20.768Z,28.97
2018-12-06T18:05:49.500Z,14.50
2018-12-06T18:08:18.465Z,14.10
2018-12-06T18:10:47.221Z,9.07
2018-12-06T18:13:15.811Z,10.57
2018-12-06T18:15:45.033Z,8.63
2018-12-06T18:18:13.676Z,8.80
2018-12-06T18:20:42.432Z,9.03
2018-12-06T18:23:11.252Z,8.53
2018-12-06T18:25:40.090Z,14.63
2018-12-06T18:28:08.848Z,12.03
2018-12-06T18:30:37.432Z,13.77
2018-12-06T18:33:06.071Z,13.43
2018-12-06T18:35:34.841Z,13.07
2018-12-06T18:38:03.696Z,14.27
2018-12-06T18:40:32.533Z,10.90
2018-12-06T18:43:01.392Z,11.63
2018-12-06T18:45:30.454Z,11.40
2018-12-06T18:47:59.428Z,10.83
2018-12-06T18:50:28.854Z,8.78
2018-12-06T18:52:58.352Z,8.57
2018-12-06T18:55:28.736Z,9.63
2018-12-06T18:57:57.672Z,12.87
2018-12-06T19:00:26.508Z,9.17
2018-12-06T19:02:55.270Z,12.03
2018-12-06T19:05:24.060Z,15.77
2018-12-06T19:07:52.683Z,11.23
2018-12-06T19:10:21.288Z,9.27
2018-12-06T19:12:50.052Z,11.67
2018-12-06T19:15:18.721Z,11.37
2018-12-06T19:17:47.161Z,15.23
2018-12-06T19:20:15.679Z,11.80
2018-12-06T19:22:44.406Z,9.73
2018-12-06T19:25:12.915Z,12.07
2018-12-06T19:27:41.449Z,12.50
2018-12-06T19:30:10.464Z,10.60
2018-12-06T19:32:39.044Z,12.27
2018-12-06T19:35:07.788Z,13.17
2018-12-06T19:37:36.580Z,10.53
2018-12-06T19:40:06.328Z,10.00
2018-12-06T19:42:38.683Z,9.77
2018-12-06T19:45:06.059Z,9.83
2018-12-06T19:47:34.665Z,10.27
2018-12-06T19:50:03.716Z,9.17
2018-12-06T19:52:32.397Z,7.80
2018-12-06T19:55:01.242Z,7.13
2018-12-06T19:57:29.775Z,9.70
2018-12-06T19:59:58.468Z,8.90
2018-12-06T20:02:27.220Z,9.13
2018-12-06T20:04:56.052Z,9.93
2018-12-06T20:07:24.882Z,7.70
2018-12-06T20:09:53.716Z,7.97
2018-12-06T20:12:22.492Z,7.27
2018-12-06T20:14:51.188Z,8.80
2018-12-06T20:17:19.998Z,8.63
2018-12-06T20:19:48.792Z,8.10
2018-12-06T20:22:17.476Z,8.47
2018-12-06T20:24:46.177Z,8.10
2018-12-06T20:27:14.922Z,6.67
2018-12-06T20:29:43.677Z,7.23
2018-12-06T20:32:14.900Z,10.97
2018-12-06T20:34:43.365Z,7.50
2018-12-06T20:37:12.543Z,7.40
2018-12-06T20:39:41.272Z,7.73
2018-12-06T20:42:09.831Z,7.60
2018-12-06T20:44:38.512Z,6.97
2018-12-06T20:47:07.265Z,7.20
2018-12-06T20:49:36.064Z,6.00
2018-12-06T20:52:04.650Z,6.50
2018-12-06T20:54:33.119Z,7.57
2018-12-06T20:57:01.732Z,7.10
2018-12-06T20:59:30.496Z,6.77
2018-12-06T21:01:59.205Z,6.93
2018-12-06T21:04:27.898Z,6.90
2018-12-06T21:06:56.785Z,6.77
2018-12-06T21:09:25.372Z,8.83
2018-12-06T21:11:53.985Z,6.57
2018-12-06T21:14:22.567Z,6.03
2018-12-06T21:16:51.271Z,5.83
2018-12-06T21:19:19.972Z,6.10
2018-12-06T21:21:48.766Z,8.27
2018-12-06T21:24:17.308Z,5.67
2018-12-06T21:26:45.791Z,7.77
2018-12-06T21:29:14.389Z,7.63
2018-12-06T21:31:45.084Z,6.00
2018-12-06T21:34:13.840Z,7.13
2018-12-06T21:36:44.624Z,6.97
2018-12-06T21:39:13.444Z,7.63
2018-12-06T21:41:42.248Z,4.40
2018-12-06T21:44:10.992Z,5.13
2018-12-06T21:46:39.785Z,4.80
2018-12-06T21:49:08.448Z,6.43
2018-12-06T21:51:36.892Z,6.37
2018-12-06T21:54:05.444Z,6.60
2018-12-06T21:56:33.956Z,4.67
2018-12-06T21:59:02.508Z,3.50
2018-12-06T22:01:31.171Z,6.63
2018-12-06T22:03:59.944Z,3.90
2018-12-06T22:06:29.463Z,4.90
2018-12-06T22:08:58.227Z,4.73
2018-12-06T22:11:27.057Z,7.37
2018-12-06T22:13:55.868Z,3.67
2018-12-06T22:16:24.512Z,5.57
2018-12-06T22:18:54.142Z,5.80
2018-12-06T22:21:22.644Z,5.87
2018-12-06T22:23:51.103Z,6.33
2018-12-06T22:26:19.965Z,8.07
2018-12-06T22:28:48.772Z,5.73
2018-12-06T22:31:17.533Z,6.57
2018-12-06T22:33:46.283Z,6.00
2018-12-06T22:36:14.972Z,9.27
2018-12-06T22:38:43.735Z,6.50
2018-12-06T22:41:12.491Z,6.87
2018-12-06T22:43:41.040Z,10.57
2018-12-06T22:46:09.776Z,6.23
2018-12-06T22:48:38.524Z,6.03
2018-12-06T22:51:07.091Z,6.57
2018-12-06T22:53:35.808Z,7.83
2018-12-06T22:56:04.645Z,11.23
2018-12-06T22:58:33.291Z,8.80
2018-12-06T23:01:04.445Z,8.77
2018-12-06T23:03:35.182Z,9.53
2018-12-06T23:06:04.090Z,11.33
2018-12-06T23:08:33.684Z,12.33
2018-12-06T23:11:02.384Z,10.00
2018-12-06T23:13:31.200Z,10.23
2018-12-06T23:16:00.624Z,12.82
2018-12-06T23:18:29.372Z,13.17
2018-12-06T23:20:58.011Z,6.90
2018-12-06T23:23:26.768Z,8.97
2018-12-06T23:25:55.557Z,8.03
2018-12-06T23:28:24.103Z,9.67
2018-12-06T23:30:52.824Z,8.90
2018-12-06T23:33:22.326Z,10.27
2018-12-06T23:35:51.017Z,14.53
2018-12-06T23:38:19.790Z,10.23
2018-12-06T23:40:48.348Z,12.37
2018-12-06T23:43:17.082Z,9.23
2018-12-06T23:45:45.837Z,9.17
2018-12-06T23:48:15.753Z,7.90
2018-12-06T23:50:44.496Z,9.93
2018-12-06T23:53:13.064Z,7.30
2018-12-06T23:55:41.504Z,9.23
2018-12-06T23:58:10.172Z,9.67
